East Pembroke, New York
Current Conditions -  °F | °C
As of 3:00 PM on Thursday 29 Jan 2015 (Local Time) from KBUF Reporting Station
Moderate Snow Moderate Snow  
Wind Chill: 21°   Ceiling: 900
Heat Index: 32°   Visibility: 0.5mi
Dew Point: 29°   Wind: 16mph
Humidity: 88%   Direction: 190°S
Pressure: 29.74"   Gusts: 25mph
Location:  43°N, 78.31°W
Report Text: KBUF 292000Z 19014G22KT 1/2SM R23/3500VP6000FT SN FG BKN009 BKN016 OVC024 00/M02 A2974 RMK AO2 CIG 007V011 P0000 T00001017
Loading
Personal Weather Stations






























Interactive Weather Map New forecast layout! Learn more

10-Day Weather Forecast

Advertisements
Track Severe Weather on mobile